sensor_id;sensor_type;location;lat;lon;timestamp;P1;durP1;ratioP1;P2;durP2;ratioP2
11010;SDS011;5558;42.702;23.178;2023-05-10T00:01:47;18.73;;;16.73;;
11010;SDS011;5558;42.702;23.178;2023-05-10T00:04:13;16.77;;;15.17;;
11010;SDS011;5558;42.702;23.178;2023-05-10T00:06:40;19.67;;;17.57;;
11010;SDS011;5558;42.702;23.178;2023-05-10T00:09:07;21.43;;;18.37;;
11010;SDS011;5558;42.702;23.178;2023-05-10T00:11:35;22.57;;;18.67;;
11010;SDS011;5558;42.702;23.178;2023-05-10T00:14:01;18.87;;;16.87;;
11010;SDS011;5558;42.702;23.178;2023-05-10T00:16:28;18.70;;;16.80;;
11010;SDS011;5558;42.702;23.178;2023-05-10T00:18:55;20.27;;;18.03;;
11010;SDS011;5558;42.702;23.178;2023-05-10T00:21:22;20.27;;;18.17;;
11010;SDS011;5558;42.702;23.178;2023-05-10T00:23:48;19.20;;;17.17;;
11010;SDS011;5558;42.702;23.178;2023-05-10T00:26:15;18.30;;;16.50;;
11010;SDS011;5558;42.702;23.178;2023-05-10T00:28:44;17.40;;;15.70;;
11010;SDS011;5558;42.702;23.178;2023-05-10T00:31:10;17.17;;;15.57;;
11010;SDS011;5558;42.702;23.178;2023-05-10T00:33:37;16.67;;;15.17;;
11010;SDS011;5558;42.702;23.178;2023-05-10T00:36:04;16.80;;;15.20;;
11010;SDS011;5558;42.702;23.178;2023-05-10T00:38:32;16.70;;;15.10;;
11010;SDS011;5558;42.702;23.178;2023-05-10T00:40:59;16.93;;;15.33;;
11010;SDS011;5558;42.702;23.178;2023-05-10T00:43:26;17.63;;;16.03;;
11010;SDS011;5558;42.702;23.178;2023-05-10T00:45:54;16.87;;;15.27;;
11010;SDS011;5558;42.702;23.178;2023-05-10T00:48:21;17.50;;;15.90;;
11010;SDS011;5558;42.702;23.178;2023-05-10T00:50:48;19.13;;;17.23;;
11010;SDS011;5558;42.702;23.178;2023-05-10T00:53:15;16.37;;;14.87;;
11010;SDS011;5558;42.702;23.178;2023-05-10T00:55:42;19.80;;;17.87;;
11010;SDS011;5558;42.702;23.178;2023-05-10T00:58:09;18.27;;;16.57;;
11010;SDS011;5558;42.702;23.178;2023-05-10T01:00:36;15.70;;;14.30;;
11010;SDS011;5558;42.702;23.178;2023-05-10T01:03:09;16.70;;;15.30;;
11010;SDS011;5558;42.702;23.178;2023-05-10T01:05:36;17.73;;;16.13;;
11010;SDS011;5558;42.702;23.178;2023-05-10T01:08:02;16.43;;;15.03;;
11010;SDS011;5558;42.702;23.178;2023-05-10T01:10:29;19.40;;;17.53;;
11010;SDS011;5558;42.702;23.178;2023-05-10T01:12:56;17.80;;;16.27;;
11010;SDS011;5558;42.702;23.178;2023-05-10T01:15:25;20.07;;;18.17;;
11010;SDS011;5558;42.702;23.178;2023-05-10T01:17:53;19.60;;;17.80;;
11010;SDS011;5558;42.702;23.178;2023-05-10T01:20:21;19.77;;;18.03;;
11010;SDS011;5558;42.702;23.178;2023-05-10T01:23:03;17.83;;;16.23;;
11010;SDS011;5558;42.702;23.178;2023-05-10T01:34:45;15.87;;;14.57;;
11010;SDS011;5558;42.702;23.178;2023-05-10T01:37:20;18.47;;;16.77;;
11010;SDS011;5558;42.702;23.178;2023-05-10T01:39:52;16.30;;;14.90;;
11010;SDS011;5558;42.702;23.178;2023-05-10T01:42:25;16.73;;;15.33;;
11010;SDS011;5558;42.702;23.178;2023-05-10T01:44:58;17.17;;;15.77;;
11010;SDS011;5558;42.702;23.178;2023-05-10T01:47:35;17.80;;;16.27;;
11010;SDS011;5558;42.702;23.178;2023-05-10T01:50:06;16.17;;;14.77;;
11010;SDS011;5558;42.702;23.178;2023-05-10T01:52:42;13.57;;;12.43;;
11010;SDS011;5558;42.702;23.178;2023-05-10T01:55:11;14.33;;;13.13;;
11010;SDS011;5558;42.702;23.178;2023-05-10T01:57:42;17.07;;;15.57;;
11010;SDS011;5558;42.702;23.178;2023-05-10T02:00:11;15.67;;;14.03;;
11010;SDS011;5558;42.702;23.178;2023-05-10T02:02:42;13.60;;;12.47;;
11010;SDS011;5558;42.702;23.178;2023-05-10T02:05:12;12.50;;;11.50;;
11010;SDS011;5558;42.702;23.178;2023-05-10T02:07:40;14.50;;;13.20;;
11010;SDS011;5558;42.702;23.178;2023-05-10T02:10:09;15.33;;;14.03;;
11010;SDS011;5558;42.702;23.178;2023-05-10T02:12:39;11.73;;;10.83;;
11010;SDS011;5558;42.702;23.178;2023-05-10T02:15:08;11.57;;;10.67;;
11010;SDS011;5558;42.702;23.178;2023-05-10T02:17:37;10.43;;;9.53;;
11010;SDS011;5558;42.702;23.178;2023-05-10T02:20:08;8.60;;;8.00;;
11010;SDS011;5558;42.702;23.178;2023-05-10T02:22:35;10.73;;;9.73;;
11010;SDS011;5558;42.702;23.178;2023-05-10T02:25:04;9.40;;;8.70;;
11010;SDS011;5558;42.702;23.178;2023-05-10T02:27:33;9.33;;;8.63;;
11010;SDS011;5558;42.702;23.178;2023-05-10T02:30:01;9.37;;;8.57;;
11010;SDS011;5558;42.702;23.178;2023-05-10T02:32:28;9.60;;;8.47;;
11010;SDS011;5558;42.702;23.178;2023-05-10T02:34:55;7.63;;;7.03;;
11010;SDS011;5558;42.702;23.178;2023-05-10T02:37:24;7.10;;;6.60;;
11010;SDS011;5558;42.702;23.178;2023-05-10T02:39:53;7.83;;;7.13;;
11010;SDS011;5558;42.702;23.178;2023-05-10T02:42:22;7.43;;;6.73;;
11010;SDS011;5558;42.702;23.178;2023-05-10T02:44:52;7.40;;;6.77;;
11010;SDS011;5558;42.702;23.178;2023-05-10T02:47:22;6.37;;;5.77;;
11010;SDS011;5558;42.702;23.178;2023-05-10T02:49:48;6.90;;;6.20;;
11010;SDS011;5558;42.702;23.178;2023-05-10T02:52:16;6.33;;;5.73;;
11010;SDS011;5558;42.702;23.178;2023-05-10T02:54:50;7.17;;;6.57;;
11010;SDS011;5558;42.702;23.178;2023-05-10T02:57:22;6.70;;;6.20;;
11010;SDS011;5558;42.702;23.178;2023-05-10T02:59:52;7.20;;;6.40;;
11010;SDS011;5558;42.702;23.178;2023-05-10T03:02:20;7.53;;;6.67;;
11010;SDS011;5558;42.702;23.178;2023-05-10T03:04:46;7.37;;;6.67;;
11010;SDS011;5558;42.702;23.178;2023-05-10T03:07:13;7.20;;;6.53;;
11010;SDS011;5558;42.702;23.178;2023-05-10T03:09:40;7.47;;;6.60;;
11010;SDS011;5558;42.702;23.178;2023-05-10T03:12:14;7.90;;;7.20;;
11010;SDS011;5558;42.702;23.178;2023-05-10T03:14:49;7.77;;;7.17;;
11010;SDS011;5558;42.702;23.178;2023-05-10T03:17:22;8.27;;;7.57;;
11010;SDS011;5558;42.702;23.178;2023-05-10T03:19:55;8.13;;;7.43;;
11010;SDS011;5558;42.702;23.178;2023-05-10T03:22:24;7.30;;;6.60;;
11010;SDS011;5558;42.702;23.178;2023-05-10T03:24:55;8.00;;;7.20;;
11010;SDS011;5558;42.702;23.178;2023-05-10T03:27:26;7.30;;;6.70;;
11010;SDS011;5558;42.702;23.178;2023-05-10T03:29:54;7.10;;;6.40;;
11010;SDS011;5558;42.702;23.178;2023-05-10T03:32:22;7.53;;;6.83;;
11010;SDS011;5558;42.702;23.178;2023-05-10T03:34:48;9.57;;;8.67;;
11010;SDS011;5558;42.702;23.178;2023-05-10T03:37:15;8.00;;;7.40;;
11010;SDS011;5558;42.702;23.178;2023-05-10T03:39:42;7.73;;;7.13;;
11010;SDS011;5558;42.702;23.178;2023-05-10T03:42:09;7.20;;;6.50;;
11010;SDS011;5558;42.702;23.178;2023-05-10T03:44:38;7.83;;;7.10;;
11010;SDS011;5558;42.702;23.178;2023-05-10T03:47:05;7.83;;;7.23;;
11010;SDS011;5558;42.702;23.178;2023-05-10T03:49:32;7.87;;;7.17;;
11010;SDS011;5558;42.702;23.178;2023-05-10T03:51:58;7.13;;;6.53;;
11010;SDS011;5558;42.702;23.178;2023-05-10T03:54:25;7.80;;;7.20;;
11010;SDS011;5558;42.702;23.178;2023-05-10T03:56:51;6.37;;;5.87;;
11010;SDS011;5558;42.702;23.178;2023-05-10T03:59:18;8.37;;;7.57;;
11010;SDS011;5558;42.702;23.178;2023-05-10T04:01:46;8.03;;;7.33;;
11010;SDS011;5558;42.702;23.178;2023-05-10T04:04:13;8.33;;;7.47;;
11010;SDS011;5558;42.702;23.178;2023-05-10T04:06:40;7.50;;;6.90;;
11010;SDS011;5558;42.702;23.178;2023-05-10T04:09:07;8.43;;;7.70;;
11010;SDS011;5558;42.702;23.178;2023-05-10T04:11:34;7.40;;;6.80;;
11010;SDS011;5558;42.702;23.178;2023-05-10T04:14:00;7.33;;;6.67;;
11010;SDS011;5558;42.702;23.178;2023-05-10T04:16:27;8.57;;;7.77;;
11010;SDS011;5558;42.702;23.178;2023-05-10T04:18:55;8.93;;;8.13;;
11010;SDS011;5558;42.702;23.178;2023-05-10T04:21:22;8.40;;;7.60;;
11010;SDS011;5558;42.702;23.178;2023-05-10T04:23:49;9.10;;;7.70;;
11010;SDS011;5558;42.702;23.178;2023-05-10T04:26:15;8.13;;;7.43;;
11010;SDS011;5558;42.702;23.178;2023-05-10T04:28:42;9.00;;;8.10;;
11010;SDS011;5558;42.702;23.178;2023-05-10T04:31:09;8.53;;;7.73;;
11010;SDS011;5558;42.702;23.178;2023-05-10T04:33:36;8.83;;;7.93;;
11010;SDS011;5558;42.702;23.178;2023-05-10T04:36:05;9.10;;;8.30;;
11010;SDS011;5558;42.702;23.178;2023-05-10T04:38:31;10.20;;;9.10;;
11010;SDS011;5558;42.702;23.178;2023-05-10T04:41:05;10.10;;;9.20;;
11010;SDS011;5558;42.702;23.178;2023-05-10T04:43:32;9.40;;;8.50;;
11010;SDS011;5558;42.702;23.178;2023-05-10T04:45:59;9.77;;;8.97;;
11010;SDS011;5558;42.702;23.178;2023-05-10T04:48:26;9.00;;;8.20;;
11010;SDS011;5558;42.702;23.178;2023-05-10T04:50:53;9.57;;;8.63;;
11010;SDS011;5558;42.702;23.178;2023-05-10T04:53:21;8.07;;;7.33;;
11010;SDS011;5558;42.702;23.178;2023-05-10T04:55:47;9.70;;;8.80;;
11010;SDS011;5558;42.702;23.178;2023-05-10T04:58:14;9.17;;;8.40;;
11010;SDS011;5558;42.702;23.178;2023-05-10T05:00:41;10.13;;;9.23;;
11010;SDS011;5558;42.702;23.178;2023-05-10T05:03:07;9.37;;;8.57;;
11010;SDS011;5558;42.702;23.178;2023-05-10T05:05:34;8.00;;;7.30;;
11010;SDS011;5558;42.702;23.178;2023-05-10T05:08:01;9.00;;;8.20;;
11010;SDS011;5558;42.702;23.178;2023-05-10T05:10:29;9.93;;;9.00;;
11010;SDS011;5558;42.702;23.178;2023-05-10T05:12:56;9.80;;;8.90;;
11010;SDS011;5558;42.702;23.178;2023-05-10T05:15:22;9.10;;;8.20;;
11010;SDS011;5558;42.702;23.178;2023-05-10T05:17:49;8.90;;;8.00;;
11010;SDS011;5558;42.702;23.178;2023-05-10T05:20:16;9.80;;;8.97;;
11010;SDS011;5558;42.702;23.178;2023-05-10T05:22:44;10.27;;;9.30;;
11010;SDS011;5558;42.702;23.178;2023-05-10T05:25:10;11.23;;;10.03;;
11010;SDS011;5558;42.702;23.178;2023-05-10T05:27:39;11.30;;;10.30;;
11010;SDS011;5558;42.702;23.178;2023-05-10T05:30:06;8.43;;;7.73;;
11010;SDS011;5558;42.702;23.178;2023-05-10T05:32:33;11.30;;;10.20;;
11010;SDS011;5558;42.702;23.178;2023-05-10T05:35:00;11.07;;;10.07;;
11010;SDS011;5558;42.702;23.178;2023-05-10T05:37:27;11.33;;;10.33;;
11010;SDS011;5558;42.702;23.178;2023-05-10T05:39:53;10.37;;;9.47;;
11010;SDS011;5558;42.702;23.178;2023-05-10T05:42:20;11.77;;;10.73;;
11010;SDS011;5558;42.702;23.178;2023-05-10T05:44:48;12.40;;;11.30;;
11010;SDS011;5558;42.702;23.178;2023-05-10T05:47:15;12.37;;;11.17;;
11010;SDS011;5558;42.702;23.178;2023-05-10T05:49:42;12.00;;;10.80;;
11010;SDS011;5558;42.702;23.178;2023-05-10T05:52:10;12.30;;;11.10;;
11010;SDS011;5558;42.702;23.178;2023-05-10T05:54:37;13.17;;;11.87;;
11010;SDS011;5558;42.702;23.178;2023-05-10T05:57:04;12.60;;;11.50;;
11010;SDS011;5558;42.702;23.178;2023-05-10T05:59:31;12.27;;;10.33;;
11010;SDS011;5558;42.702;23.178;2023-05-10T06:01:59;12.57;;;11.40;;
11010;SDS011;5558;42.702;23.178;2023-05-10T06:04:26;12.13;;;11.03;;
11010;SDS011;5558;42.702;23.178;2023-05-10T06:06:52;12.83;;;11.53;;
11010;SDS011;5558;42.702;23.178;2023-05-10T06:09:19;13.07;;;11.87;;
11010;SDS011;5558;42.702;23.178;2023-05-10T06:11:46;12.93;;;11.63;;
11010;SDS011;5558;42.702;23.178;2023-05-10T06:14:12;12.47;;;11.27;;
11010;SDS011;5558;42.702;23.178;2023-05-10T06:16:39;13.40;;;12.20;;
11010;SDS011;5558;42.702;23.178;2023-05-10T06:19:07;14.77;;;13.47;;
11010;SDS011;5558;42.702;23.178;2023-05-10T06:21:34;14.27;;;12.83;;
11010;SDS011;5558;42.702;23.178;2023-05-10T06:24:01;15.03;;;13.57;;
11010;SDS011;5558;42.702;23.178;2023-05-10T06:26:28;15.37;;;13.87;;
11010;SDS011;5558;42.702;23.178;2023-05-10T06:28:55;14.77;;;13.27;;
11010;SDS011;5558;42.702;23.178;2023-05-10T06:31:21;14.03;;;12.53;;
11010;SDS011;5558;42.702;23.178;2023-05-10T06:33:48;14.70;;;13.23;;
11010;SDS011;5558;42.702;23.178;2023-05-10T06:36:16;17.30;;;15.47;;
11010;SDS011;5558;42.702;23.178;2023-05-10T06:38:43;16.93;;;15.30;;
11010;SDS011;5558;42.702;23.178;2023-05-10T06:41:10;14.30;;;12.67;;
11010;SDS011;5558;42.702;23.178;2023-05-10T06:43:36;15.00;;;13.60;;
11010;SDS011;5558;42.702;23.178;2023-05-10T06:46:05;14.20;;;12.73;;
11010;SDS011;5558;42.702;23.178;2023-05-10T06:48:32;15.10;;;13.60;;
11010;SDS011;5558;42.702;23.178;2023-05-10T06:50:59;14.50;;;13.20;;
11010;SDS011;5558;42.702;23.178;2023-05-10T06:53:27;13.00;;;11.70;;
11010;SDS011;5558;42.702;23.178;2023-05-10T06:55:54;11.83;;;10.83;;
11010;SDS011;5558;42.702;23.178;2023-05-10T06:58:20;13.60;;;12.23;;
11010;SDS011;5558;42.702;23.178;2023-05-10T07:00:47;14.00;;;12.30;;
11010;SDS011;5558;42.702;23.178;2023-05-10T07:03:14;12.67;;;11.53;;
11010;SDS011;5558;42.702;23.178;2023-05-10T07:05:40;12.40;;;11.13;;
11010;SDS011;5558;42.702;23.178;2023-05-10T07:08:07;12.47;;;11.23;;
11010;SDS011;5558;42.702;23.178;2023-05-10T07:10:35;12.43;;;11.33;;
11010;SDS011;5558;42.702;23.178;2023-05-10T07:13:02;12.60;;;11.30;;
11010;SDS011;5558;42.702;23.178;2023-05-10T07:15:29;11.57;;;10.40;;
11010;SDS011;5558;42.702;23.178;2023-05-10T07:17:55;12.50;;;11.30;;
11010;SDS011;5558;42.702;23.178;2023-05-10T07:20:22;14.13;;;11.83;;
11010;SDS011;5558;42.702;23.178;2023-05-10T07:22:49;13.00;;;11.80;;
11010;SDS011;5558;42.702;23.178;2023-05-10T07:25:15;11.37;;;10.37;;
11010;SDS011;5558;42.702;23.178;2023-05-10T07:27:43;13.10;;;11.80;;
11010;SDS011;5558;42.702;23.178;2023-05-10T07:30:11;11.93;;;10.83;;
11010;SDS011;5558;42.702;23.178;2023-05-10T07:32:39;11.30;;;10.10;;
11010;SDS011;5558;42.702;23.178;2023-05-10T07:35:07;11.83;;;10.77;;
11010;SDS011;5558;42.702;23.178;2023-05-10T07:37:34;12.47;;;11.37;;
11010;SDS011;5558;42.702;23.178;2023-05-10T07:40:01;10.90;;;9.80;;
11010;SDS011;5558;42.702;23.178;2023-05-10T07:42:27;11.60;;;10.40;;
11010;SDS011;5558;42.702;23.178;2023-05-10T07:44:56;10.67;;;9.67;;
11010;SDS011;5558;42.702;23.178;2023-05-10T07:47:22;11.50;;;10.43;;
11010;SDS011;5558;42.702;23.178;2023-05-10T07:49:49;11.97;;;10.80;;
11010;SDS011;5558;42.702;23.178;2023-05-10T07:52:16;10.37;;;9.43;;
11010;SDS011;5558;42.702;23.178;2023-05-10T07:54:43;10.10;;;9.20;;
11010;SDS011;5558;42.702;23.178;2023-05-10T07:57:09;11.40;;;10.40;;
11010;SDS011;5558;42.702;23.178;2023-05-10T07:59:36;11.20;;;10.20;;
11010;SDS011;5558;42.702;23.178;2023-05-10T08:02:04;12.03;;;10.90;;
11010;SDS011;5558;42.702;23.178;2023-05-10T08:04:31;10.77;;;9.87;;
11010;SDS011;5558;42.702;23.178;2023-05-10T08:06:58;12.67;;;11.47;;
11010;SDS011;5558;42.702;23.178;2023-05-10T08:09:25;10.93;;;9.80;;
11010;SDS011;5558;42.702;23.178;2023-05-10T08:11:51;12.40;;;11.20;;
11010;SDS011;5558;42.702;23.178;2023-05-10T08:14:18;11.50;;;10.43;;
11010;SDS011;5558;42.702;23.178;2023-05-10T08:16:45;13.57;;;12.27;;
11010;SDS011;5558;42.702;23.178;2023-05-10T08:19:13;12.20;;;11.10;;
11010;SDS011;5558;42.702;23.178;2023-05-10T08:21:43;12.43;;;11.13;;
11010;SDS011;5558;42.702;23.178;2023-05-10T08:24:10;12.77;;;11.67;;
11010;SDS011;5558;42.702;23.178;2023-05-10T08:26:37;13.90;;;12.47;;
11010;SDS011;5558;42.702;23.178;2023-05-10T08:29:04;11.70;;;10.60;;
11010;SDS011;5558;42.702;23.178;2023-05-10T08:31:31;12.80;;;11.50;;
11010;SDS011;5558;42.702;23.178;2023-05-10T08:33:58;12.90;;;11.30;;
11010;SDS011;5558;42.702;23.178;2023-05-10T08:36:26;12.27;;;11.07;;
11010;SDS011;5558;42.702;23.178;2023-05-10T08:38:53;12.37;;;11.10;;
11010;SDS011;5558;42.702;23.178;2023-05-10T08:41:20;11.97;;;10.87;;
11010;SDS011;5558;42.702;23.178;2023-05-10T08:43:51;11.40;;;10.23;;
11010;SDS011;5558;42.702;23.178;2023-05-10T08:46:19;11.77;;;10.67;;
11010;SDS011;5558;42.702;23.178;2023-05-10T08:48:47;10.93;;;9.87;;
11010;SDS011;5558;42.702;23.178;2023-05-10T08:51:15;11.43;;;10.33;;
11010;SDS011;5558;42.702;23.178;2023-05-10T08:53:46;11.77;;;10.63;;
11010;SDS011;5558;42.702;23.178;2023-05-10T08:56:13;11.83;;;10.43;;
11010;SDS011;5558;42.702;23.178;2023-05-10T08:58:42;10.77;;;9.77;;
11010;SDS011;5558;42.702;23.178;2023-05-10T09:01:10;10.40;;;9.47;;
11010;SDS011;5558;42.702;23.178;2023-05-10T09:03:38;9.63;;;8.83;;
11010;SDS011;5558;42.702;23.178;2023-05-10T09:06:06;11.57;;;10.57;;
11010;SDS011;5558;42.702;23.178;2023-05-10T09:08:33;11.00;;;9.90;;
11010;SDS011;5558;42.702;23.178;2023-05-10T09:11:01;10.50;;;9.50;;
11010;SDS011;5558;42.702;23.178;2023-05-10T09:13:28;11.23;;;10.30;;
11010;SDS011;5558;42.702;23.178;2023-05-10T09:15:56;10.07;;;9.07;;
11010;SDS011;5558;42.702;23.178;2023-05-10T09:18:22;10.27;;;9.37;;
11010;SDS011;5558;42.702;23.178;2023-05-10T09:20:49;10.00;;;9.20;;
11010;SDS011;5558;42.702;23.178;2023-05-10T09:23:16;9.70;;;8.80;;
11010;SDS011;5558;42.702;23.178;2023-05-10T09:25:43;10.97;;;10.07;;
11010;SDS011;5558;42.702;23.178;2023-05-10T09:28:11;10.07;;;9.17;;
11010;SDS011;5558;42.702;23.178;2023-05-10T09:30:38;11.20;;;10.27;;
11010;SDS011;5558;42.702;23.178;2023-05-10T09:33:05;10.40;;;9.40;;
11010;SDS011;5558;42.702;23.178;2023-05-10T09:35:33;10.53;;;9.60;;
11010;SDS011;5558;42.702;23.178;2023-05-10T09:38:00;11.27;;;9.80;;
11010;SDS011;5558;42.702;23.178;2023-05-10T09:40:29;10.27;;;9.37;;
11010;SDS011;5558;42.702;23.178;2023-05-10T09:42:56;10.67;;;9.77;;
11010;SDS011;5558;42.702;23.178;2023-05-10T09:45:26;9.27;;;8.47;;
11010;SDS011;5558;42.702;23.178;2023-05-10T09:47:54;11.03;;;10.03;;
11010;SDS011;5558;42.702;23.178;2023-05-10T09:50:21;10.77;;;9.77;;
11010;SDS011;5558;42.702;23.178;2023-05-10T09:52:49;10.13;;;9.27;;
11010;SDS011;5558;42.702;23.178;2023-05-10T09:55:17;8.80;;;8.00;;
11010;SDS011;5558;42.702;23.178;2023-05-10T09:57:45;9.57;;;8.77;;
11010;SDS011;5558;42.702;23.178;2023-05-10T10:00:16;10.03;;;9.13;;
11010;SDS011;5558;42.702;23.178;2023-05-10T10:02:46;9.67;;;8.87;;
11010;SDS011;5558;42.702;23.178;2023-05-10T10:05:14;10.00;;;9.00;;
11010;SDS011;5558;42.702;23.178;2023-05-10T10:07:41;9.97;;;9.13;;
11010;SDS011;5558;42.702;23.178;2023-05-10T10:10:08;10.60;;;9.50;;
11010;SDS011;5558;42.702;23.178;2023-05-10T10:12:38;8.90;;;8.10;;
11010;SDS011;5558;42.702;23.178;2023-05-10T10:15:07;9.03;;;8.13;;
11010;SDS011;5558;42.702;23.178;2023-05-10T10:17:34;9.73;;;8.93;;
11010;SDS011;5558;42.702;23.178;2023-05-10T10:20:05;9.63;;;8.73;;
11010;SDS011;5558;42.702;23.178;2023-05-10T10:22:33;9.60;;;8.73;;
11010;SDS011;5558;42.702;23.178;2023-05-10T10:25:00;9.97;;;9.10;;
11010;SDS011;5558;42.702;23.178;2023-05-10T10:27:28;10.37;;;9.23;;
11010;SDS011;5558;42.702;23.178;2023-05-10T10:30:10;9.90;;;9.00;;
11010;SDS011;5558;42.702;23.178;2023-05-10T10:32:53;10.77;;;9.83;;
11010;SDS011;5558;42.702;23.178;2023-05-10T10:35:38;9.30;;;8.53;;
11010;SDS011;5558;42.702;23.178;2023-05-10T10:38:07;10.30;;;9.40;;
11010;SDS011;5558;42.702;23.178;2023-05-10T10:40:34;10.17;;;9.27;;
11010;SDS011;5558;42.702;23.178;2023-05-10T10:46:09;10.17;;;9.20;;
11010;SDS011;5558;42.702;23.178;2023-05-10T10:48:37;10.40;;;9.50;;
11010;SDS011;5558;42.702;23.178;2023-05-10T10:51:05;10.60;;;9.60;;
11010;SDS011;5558;42.702;23.178;2023-05-10T10:53:32;10.83;;;9.83;;
11010;SDS011;5558;42.702;23.178;2023-05-10T10:56:04;9.23;;;8.50;;
11010;SDS011;5558;42.702;23.178;2023-05-10T10:58:33;10.27;;;9.37;;
11010;SDS011;5558;42.702;23.178;2023-05-10T11:01:13;9.80;;;8.90;;
11010;SDS011;5558;42.702;23.178;2023-05-10T11:03:41;10.87;;;8.50;;
11010;SDS011;5558;42.702;23.178;2023-05-10T11:06:42;9.77;;;8.97;;
11010;SDS011;5558;42.702;23.178;2023-05-10T11:09:09;9.50;;;8.70;;
11010;SDS011;5558;42.702;23.178;2023-05-10T11:11:48;8.20;;;7.40;;
11010;SDS011;5558;42.702;23.178;2023-05-10T11:14:15;9.20;;;8.37;;
11010;SDS011;5558;42.702;23.178;2023-05-10T11:16:46;9.20;;;8.40;;
11010;SDS011;5558;42.702;23.178;2023-05-10T11:19:13;9.17;;;8.00;;
11010;SDS011;5558;42.702;23.178;2023-05-10T11:21:46;8.93;;;8.03;;
11010;SDS011;5558;42.702;23.178;2023-05-10T11:24:14;8.37;;;7.50;;
11010;SDS011;5558;42.702;23.178;2023-05-10T11:26:42;8.73;;;7.80;;
11010;SDS011;5558;42.702;23.178;2023-05-10T11:29:09;7.90;;;7.20;;
11010;SDS011;5558;42.702;23.178;2023-05-10T11:31:41;7.70;;;7.10;;
11010;SDS011;5558;42.702;23.178;2023-05-10T11:34:09;8.73;;;7.93;;
11010;SDS011;5558;42.702;23.178;2023-05-10T11:36:36;9.33;;;8.47;;
11010;SDS011;5558;42.702;23.178;2023-05-10T11:39:04;8.93;;;8.13;;
11010;SDS011;5558;42.702;23.178;2023-05-10T11:41:32;8.60;;;7.87;;
11010;SDS011;5558;42.702;23.178;2023-05-10T11:43:59;8.50;;;7.63;;
11010;SDS011;5558;42.702;23.178;2023-05-10T11:46:26;8.13;;;7.43;;
11010;SDS011;5558;42.702;23.178;2023-05-10T11:48:55;9.23;;;8.33;;
11010;SDS011;5558;42.702;23.178;2023-05-10T11:51:25;7.93;;;7.20;;
11010;SDS011;5558;42.702;23.178;2023-05-10T11:53:53;8.90;;;8.10;;
11010;SDS011;5558;42.702;23.178;2023-05-10T11:56:22;8.17;;;7.43;;
11010;SDS011;5558;42.702;23.178;2023-05-10T11:58:54;8.50;;;7.60;;
11010;SDS011;5558;42.702;23.178;2023-05-10T12:01:22;7.50;;;6.80;;
11010;SDS011;5558;42.702;23.178;2023-05-10T12:03:49;9.50;;;6.83;;
11010;SDS011;5558;42.702;23.178;2023-05-10T12:06:17;7.80;;;7.07;;
11010;SDS011;5558;42.702;23.178;2023-05-10T12:08:45;8.23;;;7.50;;
11010;SDS011;5558;42.702;23.178;2023-05-10T12:11:12;9.03;;;8.23;;
11010;SDS011;5558;42.702;23.178;2023-05-10T12:13:42;9.00;;;8.00;;
11010;SDS011;5558;42.702;23.178;2023-05-10T12:16:15;8.77;;;7.87;;
11010;SDS011;5558;42.702;23.178;2023-05-10T12:18:43;8.50;;;7.27;;
11010;SDS011;5558;42.702;23.178;2023-05-10T12:21:10;8.73;;;7.93;;
11010;SDS011;5558;42.702;23.178;2023-05-10T12:23:38;9.70;;;8.87;;
11010;SDS011;5558;42.702;23.178;2023-05-10T12:26:05;8.73;;;7.93;;
11010;SDS011;5558;42.702;23.178;2023-05-10T12:28:33;10.07;;;9.10;;
11010;SDS011;5558;42.702;23.178;2023-05-10T12:31:01;9.23;;;8.40;;
11010;SDS011;5558;42.702;23.178;2023-05-10T12:33:35;9.57;;;8.77;;
11010;SDS011;5558;42.702;23.178;2023-05-10T12:36:04;8.90;;;8.10;;
11010;SDS011;5558;42.702;23.178;2023-05-10T12:38:32;9.43;;;8.50;;
11010;SDS011;5558;42.702;23.178;2023-05-10T12:41:00;9.97;;;8.97;;
11010;SDS011;5558;42.702;23.178;2023-05-10T12:43:28;9.83;;;8.83;;
11010;SDS011;5558;42.702;23.178;2023-05-10T12:45:55;9.97;;;9.10;;
11010;SDS011;5558;42.702;23.178;2023-05-10T12:48:25;9.47;;;8.57;;
11010;SDS011;5558;42.702;23.178;2023-05-10T12:50:53;9.80;;;8.80;;
11010;SDS011;5558;42.702;23.178;2023-05-10T12:53:20;10.80;;;9.80;;
11010;SDS011;5558;42.702;23.178;2023-05-10T12:55:47;10.00;;;9.00;;
11010;SDS011;5558;42.702;23.178;2023-05-10T12:58:14;10.40;;;9.50;;
11010;SDS011;5558;42.702;23.178;2023-05-10T13:00:40;10.67;;;9.67;;
11010;SDS011;5558;42.702;23.178;2023-05-10T13:03:08;10.87;;;9.97;;
11010;SDS011;5558;42.702;23.178;2023-05-10T13:05:36;12.80;;;10.23;;
11010;SDS011;5558;42.702;23.178;2023-05-10T13:08:03;10.40;;;9.50;;
11010;SDS011;5558;42.702;23.178;2023-05-10T13:10:30;9.70;;;8.40;;
11010;SDS011;5558;42.702;23.178;2023-05-10T13:12:57;9.30;;;8.50;;
11010;SDS011;5558;42.702;23.178;2023-05-10T13:15:24;10.60;;;9.60;;
11010;SDS011;5558;42.702;23.178;2023-05-10T13:17:51;10.50;;;9.50;;
11010;SDS011;5558;42.702;23.178;2023-05-10T13:20:18;11.47;;;10.23;;
11010;SDS011;5558;42.702;23.178;2023-05-10T13:22:47;10.60;;;9.50;;
11010;SDS011;5558;42.702;23.178;2023-05-10T13:25:13;10.40;;;9.37;;
11010;SDS011;5558;42.702;23.178;2023-05-10T13:27:40;10.57;;;9.57;;
11010;SDS011;5558;42.702;23.178;2023-05-10T13:30:07;10.30;;;9.30;;
11010;SDS011;5558;42.702;23.178;2023-05-10T13:32:34;10.53;;;9.53;;
11010;SDS011;5558;42.702;23.178;2023-05-10T13:35:01;10.60;;;9.70;;
11010;SDS011;5558;42.702;23.178;2023-05-10T13:37:29;9.90;;;9.00;;
11010;SDS011;5558;42.702;23.178;2023-05-10T13:39:58;10.13;;;8.90;;
11010;SDS011;5558;42.702;23.178;2023-05-10T13:42:24;9.17;;;8.27;;
11010;SDS011;5558;42.702;23.178;2023-05-10T13:44:52;10.37;;;9.37;;
11010;SDS011;5558;42.702;23.178;2023-05-10T13:47:18;9.90;;;9.00;;
11010;SDS011;5558;42.702;23.178;2023-05-10T13:49:46;9.67;;;8.77;;
11010;SDS011;5558;42.702;23.178;2023-05-10T13:52:13;10.37;;;9.37;;
11010;SDS011;5558;42.702;23.178;2023-05-10T13:54:40;10.37;;;9.30;;
11010;SDS011;5558;42.702;23.178;2023-05-10T13:57:08;9.80;;;9.00;;
11010;SDS011;5558;42.702;23.178;2023-05-10T13:59:37;9.60;;;8.67;;
11010;SDS011;5558;42.702;23.178;2023-05-10T14:02:04;10.30;;;9.30;;
11010;SDS011;5558;42.702;23.178;2023-05-10T14:04:31;10.57;;;9.47;;
11010;SDS011;5558;42.702;23.178;2023-05-10T14:06:59;9.83;;;8.93;;
11010;SDS011;5558;42.702;23.178;2023-05-10T14:09:26;10.73;;;9.63;;
11010;SDS011;5558;42.702;23.178;2023-05-10T14:11:52;11.00;;;10.00;;
11010;SDS011;5558;42.702;23.178;2023-05-10T14:14:22;10.70;;;9.70;;
11010;SDS011;5558;42.702;23.178;2023-05-10T14:16:48;10.70;;;9.67;;
11010;SDS011;5558;42.702;23.178;2023-05-10T14:19:15;11.23;;;10.13;;
11010;SDS011;5558;42.702;23.178;2023-05-10T14:21:42;9.87;;;9.00;;
11010;SDS011;5558;42.702;23.178;2023-05-10T14:24:09;9.60;;;8.67;;
11010;SDS011;5558;42.702;23.178;2023-05-10T14:26:36;9.37;;;8.37;;
11010;SDS011;5558;42.702;23.178;2023-05-10T14:29:02;10.67;;;9.67;;
11010;SDS011;5558;42.702;23.178;2023-05-10T14:31:31;9.93;;;8.93;;
11010;SDS011;5558;42.702;23.178;2023-05-10T14:33:57;10.30;;;9.30;;
11010;SDS011;5558;42.702;23.178;2023-05-10T14:36:24;10.50;;;9.50;;
11010;SDS011;5558;42.702;23.178;2023-05-10T14:38:51;10.50;;;9.40;;
11010;SDS011;5558;42.702;23.178;2023-05-10T14:41:17;9.43;;;8.50;;
11010;SDS011;5558;42.702;23.178;2023-05-10T14:43:44;10.60;;;9.43;;
11010;SDS011;5558;42.702;23.178;2023-05-10T14:46:11;11.67;;;9.90;;
11010;SDS011;5558;42.702;23.178;2023-05-10T14:48:39;10.60;;;9.60;;
11010;SDS011;5558;42.702;23.178;2023-05-10T14:51:05;10.90;;;9.80;;
11010;SDS011;5558;42.702;23.178;2023-05-10T14:53:34;11.70;;;9.90;;